Terminal Aerodrome Forecast
Issued by NWS

Home | Current Version | Previous Version | Text Only | Print | Product List | Glossary On
Versions: 1 2 3 4 5 6 7 8 9 10 11 12
000
FTUS46 KMTR 291734
TAFSJC
TAF
KSJC 291734Z 2918/3018 16003KT P6SM SKC
     FM292000 31010KT P6SM SKC
     FM300500 28005KT P6SM SKC
     FM301400 17003KT P6SM FEW015
     FM301700 VRB03KT P6SM SCT250=

USA.gov is the U.S. government's official web portal to all federal, state and local government web resources and services.